Time;durP1;ratioP1;P1;durP2;ratioP2;P2;SDS_P1;SDS_P2;PMS_P1;PMS_P2;Temp;Humidity;BMP_temperature;BMP_pressure;BME280_temperature;BME280_humidity;BME280_pressure;Samples;Min_cycle;Max_cycle;Signal;HPM_P1;HPM_P2
2023/09/26 00:00:42;;;;;;;15.50;8.80;;;17.30;99.90;;;;;;5075430;28;20032;-69
2023/09/26 00:03:07;;;;;;;13.60;9.25;;;17.30;99.90;;;;;;5075715;28;20130;-69
2023/09/26 00:05:33;;;;;;;12.98;8.75;;;17.30;99.90;;;;;;5074995;28;20465;-69
2023/09/26 00:08:03;;;;;;;14.65;9.07;;;17.30;99.90;;;;;;5075925;28;20028;-69
2023/09/26 00:10:30;;;;;;;17.10;7.97;;;17.30;99.90;;;;;;5075599;28;20024;-69
2023/09/26 00:12:56;;;;;;;12.57;8.73;;;17.30;99.90;;;;;;5075563;28;20031;-69
2023/09/26 00:15:21;;;;;;;13.55;8.68;;;17.20;99.90;;;;;;5075051;28;20377;-70
2023/09/26 00:17:47;;;;;;;18.25;9.40;;;17.20;99.90;;;;;;5075321;28;20029;-69
2023/09/26 00:20:37;;;;;;;14.35;8.23;;;17.20;99.90;;;;;;5075427;28;20032;-69
2023/09/26 00:22:59;;;;;;;13.75;8.43;;;17.20;99.90;;;;;;5074819;28;20033;-69
2023/09/26 00:25:24;;;;;;;18.52;9.93;;;17.20;99.90;;;;;;5075144;28;20025;-69
2023/09/26 00:27:50;;;;;;;16.95;9.60;;;17.20;99.90;;;;;;5075142;28;20025;-69
2023/09/26 00:30:17;;;;;;;13.65;8.82;;;17.20;99.90;;;;;;5075436;28;20032;-69
2023/09/26 00:32:43;;;;;;;13.40;8.60;;;17.20;99.90;;;;;;5075002;28;20106;-69
2023/09/26 00:35:12;;;;;;;13.05;8.73;;;17.20;99.90;;;;;;5075306;28;20085;-69
2023/09/26 00:37:42;;;;;;;14.18;8.20;;;17.20;99.90;;;;;;5074793;28;20037;-69
2023/09/26 00:40:10;;;;;;;13.07;9.05;;;17.20;99.90;;;;;;5075350;28;20032;-69
2023/09/26 00:42:36;;;;;;;20.15;8.18;;;17.20;99.90;;;;;;5074844;28;20054;-69
2023/09/26 00:45:02;;;;;;;15.63;8.80;;;17.10;99.90;;;;;;5075192;28;20067;-69
2023/09/26 00:47:34;;;;;;;12.02;7.95;;;17.10;99.90;;;;;;5074738;28;20036;-70
2023/09/26 00:50:04;;;;;;;12.00;7.75;;;17.10;99.90;;;;;;5075340;28;20039;-69
2023/09/26 00:52:30;;;;;;;9.65;7.75;;;17.10;99.90;;;;;;5074605;28;20032;-69
2023/09/26 00:54:57;;;;;;;11.40;8.02;;;17.10;99.90;;;;;;5075168;28;20028;-69
2023/09/26 00:57:22;;;;;;;12.55;8.15;;;17.10;99.90;;;;;;5075055;28;20037;-69
2023/09/26 00:59:48;;;;;;;14.75;8.90;;;17.10;99.90;;;;;;5074498;28;20047;-70
2023/09/26 01:02:14;;;;;;;12.32;7.85;;;17.10;99.90;;;;;;5074119;28;20020;-69
2023/09/26 01:04:40;;;;;;;14.40;7.80;;;17.10;99.90;;;;;;5074699;28;20115;-69
2023/09/26 01:07:05;;;;;;;10.38;7.53;;;17.10;99.90;;;;;;5074762;28;20075;-69
2023/09/26 01:09:31;;;;;;;12.77;6.90;;;17.00;99.90;;;;;;5074152;28;20453;-70
2023/09/26 01:11:57;;;;;;;12.43;7.78;;;17.00;99.90;;;;;;5074699;28;20508;-69
2023/09/26 01:14:23;;;;;;;17.48;8.13;;;17.00;99.90;;;;;;5074704;28;20467;-69
2023/09/26 01:16:55;;;;;;;14.27;7.95;;;17.00;99.90;;;;;;5074241;28;20035;-69
2023/09/26 01:19:21;;;;;;;13.02;7.30;;;17.00;99.90;;;;;;5091507;28;20028;-69
2023/09/26 01:21:47;;;;;;;13.48;7.60;;;17.00;99.90;;;;;;5094080;28;20038;-69
2023/09/26 01:24:13;;;;;;;13.05;7.70;;;16.90;99.90;;;;;;5094639;28;20032;-69
2023/09/26 01:26:38;;;;;;;13.43;7.90;;;16.90;99.90;;;;;;5090846;28;20372;-69
2023/09/26 01:29:06;;;;;;;9.57;7.07;;;16.90;99.90;;;;;;5090805;28;20020;-69
2023/09/26 01:31:34;;;;;;;11.90;7.78;;;16.90;99.90;;;;;;5094169;28;20039;-69
2023/09/26 01:34:00;;;;;;;10.50;6.88;;;16.90;99.90;;;;;;5094471;28;20039;-69
2023/09/26 01:36:27;;;;;;;11.07;7.32;;;16.90;99.90;;;;;;5094132;28;20025;-69
2023/09/26 01:38:53;;;;;;;13.30;8.10;;;16.90;99.90;;;;;;5094205;28;20032;-69
2023/09/26 01:41:23;;;;;;;12.30;7.25;;;16.90;99.90;;;;;;5094273;28;20036;-69
2023/09/26 01:43:49;;;;;;;16.65;8.45;;;16.90;99.90;;;;;;5093851;28;20028;-69
2023/09/26 01:46:15;;;;;;;11.95;8.25;;;16.90;99.90;;;;;;5094164;28;20111;-69
2023/09/26 01:48:40;;;;;;;10.27;8.13;;;16.90;99.90;;;;;;5093771;28;20063;-70
2023/09/26 01:51:06;;;;;;;12.85;8.50;;;16.90;99.90;;;;;;5094058;28;20125;-69
2023/09/26 01:53:32;;;;;;;14.75;8.50;;;16.80;99.90;;;;;;5093730;28;20032;-69
2023/09/26 01:55:59;;;;;;;15.50;9.15;;;16.80;99.90;;;;;;5093626;28;20481;-69
2023/09/26 01:58:24;;;;;;;13.40;8.65;;;16.80;99.90;;;;;;5094128;28;20036;-69
2023/09/26 02:00:50;;;;;;;14.63;8.60;;;16.80;99.90;;;;;;5093555;28;20031;-69
2023/09/26 02:03:15;;;;;;;13.43;8.02;;;16.80;99.90;;;;;;5093830;28;20038;-69
2023/09/26 02:05:41;;;;;;;16.83;8.30;;;16.70;99.90;;;;;;5093455;28;20426;-69
2023/09/26 02:08:07;;;;;;;14.65;9.32;;;16.70;99.90;;;;;;5093813;28;20063;-69
2023/09/26 02:10:33;;;;;;;13.45;8.93;;;16.70;99.90;;;;;;5093345;28;20032;-69
2023/09/26 02:12:59;;;;;;;17.98;9.32;;;16.70;99.90;;;;;;5093788;28;20055;-69
2023/09/26 02:15:25;;;;;;;14.00;8.95;;;16.60;99.90;;;;;;5092750;28;20048;-69
2023/09/26 02:17:51;;;;;;;14.00;8.30;;;16.60;99.90;;;;;;5093152;28;20353;-69
2023/09/26 02:20:19;;;;;;;11.98;9.05;;;16.60;99.90;;;;;;5093519;28;20047;-69
2023/09/26 02:22:49;;;;;;;11.75;8.40;;;16.60;99.90;;;;;;5092965;28;20028;-69
2023/09/26 02:25:15;;;;;;;15.23;8.93;;;16.50;99.90;;;;;;5091775;28;20476;-69
2023/09/26 02:27:42;;;;;;;19.55;10.18;;;16.50;99.90;;;;;;5092909;28;20028;-70
2023/09/26 02:30:10;;;;;;;13.77;8.52;;;16.50;99.90;;;;;;5092933;28;20476;-69
2023/09/26 02:32:36;;;;;;;11.00;8.68;;;16.50;99.90;;;;;;5092805;28;20028;-70
2023/09/26 02:35:03;;;;;;;16.30;9.48;;;16.50;99.90;;;;;;5093151;28;20069;-69
2023/09/26 02:37:28;;;;;;;12.40;9.25;;;16.50;99.90;;;;;;5093048;28;20031;-69
2023/09/26 02:39:54;;;;;;;12.52;8.90;;;16.50;99.90;;;;;;5092837;28;20032;-69
2023/09/26 02:42:20;;;;;;;14.18;9.30;;;16.50;99.90;;;;;;5093173;28;20457;-69
2023/09/26 02:44:46;;;;;;;15.55;8.98;;;16.40;99.90;;;;;;5092559;28;20020;-69
2023/09/26 02:47:12;;;;;;;13.20;9.00;;;16.50;99.90;;;;;;5092960;28;20036;-69
2023/09/26 02:49:37;;;;;;;16.38;8.88;;;16.50;99.90;;;;;;5092423;28;20464;-69
2023/09/26 02:52:03;;;;;;;11.15;8.57;;;16.40;99.90;;;;;;5093016;28;20027;-69
2023/09/26 02:54:29;;;;;;;11.98;8.32;;;16.40;99.90;;;;;;5092757;28;20020;-69
2023/09/26 02:56:57;;;;;;;16.95;9.52;;;16.40;99.90;;;;;;5092656;28;20052;-69
2023/09/26 02:59:22;;;;;;;11.95;9.13;;;16.40;99.90;;;;;;5091572;28;20494;-69
2023/09/26 03:01:48;;;;;;;13.98;9.10;;;16.40;99.90;;;;;;5091091;28;20031;-70
2023/09/26 03:04:13;;;;;;;12.52;9.20;;;16.40;99.90;;;;;;5092673;28;20027;-69
2023/09/26 03:06:39;;;;;;;13.38;9.18;;;16.40;99.90;;;;;;5092335;28;20081;-69
2023/09/26 03:09:06;;;;;;;12.20;8.88;;;16.40;99.90;;;;;;5092727;28;20445;-70
2023/09/26 03:11:32;;;;;;;16.10;9.65;;;16.40;99.90;;;;;;5092703;28;20067;-70
2023/09/26 03:13:57;;;;;;;16.70;9.73;;;16.30;99.90;;;;;;5092313;28;20035;-70
2023/09/26 03:16:23;;;;;;;16.48;9.57;;;16.30;99.90;;;;;;5087210;28;20020;-69
2023/09/26 03:18:54;;;;;;;15.48;9.50;;;16.30;99.90;;;;;;5071784;28;20040;-70
2023/09/26 03:21:20;;;;;;;15.93;8.90;;;16.30;99.90;;;;;;5072464;28;20044;-70
2023/09/26 03:23:46;;;;;;;16.35;8.60;;;16.30;99.90;;;;;;5071750;28;20032;-70
2023/09/26 03:26:13;;;;;;;18.70;9.27;;;16.30;99.90;;;;;;5074265;28;20070;-70
2023/09/26 03:28:39;;;;;;;14.13;9.07;;;16.30;99.90;;;;;;5078381;28;20481;-70
2023/09/26 03:31:05;;;;;;;11.98;9.30;;;16.30;99.90;;;;;;5076775;28;20031;-70
2023/09/26 03:33:32;;;;;;;14.73;9.05;;;16.30;99.90;;;;;;5079038;28;20032;-68
2023/09/26 03:35:58;;;;;;;14.68;9.93;;;16.20;99.90;;;;;;5075895;28;20032;-69
2023/09/26 03:38:23;;;;;;;14.90;10.32;;;16.30;99.90;;;;;;5076231;28;20037;-69
2023/09/26 03:41:00;;;;;;;16.08;9.55;;;16.30;99.90;;;;;;5075849;28;20028;-69
2023/09/26 03:43:26;;;;;;;16.27;10.15;;;16.30;99.90;;;;;;5076391;28;20032;-69
2023/09/26 03:46:01;;;;;;;16.17;10.15;;;16.30;99.90;;;;;;5075740;28;20085;-69
2023/09/26 03:48:27;;;;;;;16.60;9.48;;;16.20;99.90;;;;;;5076115;28;20040;-69
2023/09/26 03:50:52;;;;;;;17.83;11.15;;;16.20;99.90;;;;;;5076096;28;20028;-69
2023/09/26 03:53:18;;;;;;;21.38;12.95;;;16.20;99.90;;;;;;5076854;28;20033;-69
2023/09/26 03:55:44;;;;;;;19.20;13.27;;;16.20;99.90;;;;;;5076043;28;20454;-69
2023/09/26 03:58:09;;;;;;;20.42;12.30;;;16.20;99.90;;;;;;5076307;28;20120;-69
2023/09/26 04:00:35;;;;;;;18.27;12.82;;;16.20;99.90;;;;;;5076184;28;20082;-69
2023/09/26 04:03:01;;;;;;;17.65;12.50;;;16.20;99.90;;;;;;5075756;28;20029;-70
2023/09/26 04:05:27;;;;;;;18.60;12.35;;;16.20;99.90;;;;;;5076244;28;20375;-69
2023/09/26 04:07:53;;;;;;;20.85;12.38;;;16.20;99.90;;;;;;5075309;28;20024;-70
2023/09/26 04:10:18;;;;;;;20.15;13.35;;;16.20;99.90;;;;;;5075760;28;20032;-69
2023/09/26 04:12:44;;;;;;;16.23;12.35;;;16.20;99.90;;;;;;5075065;28;20067;-70
2023/09/26 04:15:10;;;;;;;20.55;11.98;;;16.20;99.90;;;;;;5075535;28;20469;-70
2023/09/26 04:17:37;;;;;;;16.20;10.98;;;16.10;99.90;;;;;;5075512;28;20025;-70
2023/09/26 04:20:16;;;;;;;18.85;13.45;;;16.10;99.90;;;;;;5075015;28;20516;-70
2023/09/26 04:22:42;;;;;;;19.77;12.38;;;16.10;99.90;;;;;;5075133;28;20064;-70
2023/09/26 04:25:08;;;;;;;20.77;13.07;;;16.10;99.90;;;;;;5075786;28;20071;-70
2023/09/26 04:27:33;;;;;;;18.55;12.60;;;16.10;99.90;;;;;;5075644;28;20031;-70
2023/09/26 04:29:59;;;;;;;22.70;12.27;;;16.10;99.90;;;;;;5074954;28;20719;-70
2023/09/26 04:32:24;;;;;;;20.08;13.00;;;16.10;99.90;;;;;;5075127;28;20032;-70
2023/09/26 04:34:50;;;;;;;19.23;12.57;;;16.00;99.90;;;;;;5074653;28;20021;-69
2023/09/26 04:37:16;;;;;;;21.05;14.57;;;16.10;99.90;;;;;;5074358;28;20457;-69
2023/09/26 04:39:41;;;;;;;22.88;14.38;;;16.10;99.90;;;;;;5074895;28;20040;-70
2023/09/26 04:42:07;;;;;;;19.05;12.38;;;16.10;99.90;;;;;;5074921;28;20060;-70
2023/09/26 04:44:32;;;;;;;18.75;12.73;;;16.10;99.90;;;;;;5075064;28;20024;-70
2023/09/26 04:46:58;;;;;;;23.00;14.20;;;16.10;99.90;;;;;;5075045;28;20369;-69
2023/09/26 04:49:24;;;;;;;24.77;13.57;;;16.10;99.90;;;;;;5074781;28;20040;-70
2023/09/26 04:51:49;;;;;;;20.75;13.05;;;16.00;99.90;;;;;;5074693;28;20031;-70
2023/09/26 04:54:15;;;;;;;19.73;12.30;;;16.10;99.90;;;;;;5074912;28;20067;-69
2023/09/26 04:56:41;;;;;;;17.48;12.57;;;16.00;99.90;;;;;;5074489;28;20041;-69
2023/09/26 04:59:06;;;;;;;18.20;11.38;;;16.00;99.90;;;;;;5074689;28;20036;-69
2023/09/26 05:01:32;;;;;;;15.73;11.50;;;16.00;99.90;;;;;;5074540;28;20028;-69
2023/09/26 05:03:58;;;;;;;17.83;11.13;;;16.00;99.90;;;;;;5074428;28;20028;-69
2023/09/26 05:06:23;;;;;;;18.58;11.88;;;16.00;99.90;;;;;;5074777;28;20453;-69
2023/09/26 05:08:50;;;;;;;16.00;11.60;;;16.00;99.90;;;;;;5074321;28;20028;-69
2023/09/26 05:11:16;;;;;;;16.13;11.45;;;16.00;99.90;;;;;;5074688;28;20028;-69
2023/09/26 05:13:43;;;;;;;22.05;12.15;;;16.10;99.90;;;;;;5073328;28;20027;-69
2023/09/26 05:16:10;;;;;;;16.00;11.00;;;16.10;99.90;;;;;;5074788;28;20387;-69
2023/09/26 05:18:36;;;;;;;15.07;11.68;;;16.10;99.90;;;;;;5072899;28;20040;-69
2023/09/26 05:21:08;;;;;;;17.77;11.57;;;16.10;99.90;;;;;;5075241;28;20030;-69
2023/09/26 05:23:34;;;;;;;16.75;11.95;;;16.10;99.90;;;;;;5074932;28;20053;-69
2023/09/26 05:26:09;;;;;;;17.77;11.70;;;16.10;99.90;;;;;;5073992;28;20453;-69
2023/09/26 05:28:35;;;;;;;17.13;11.68;;;16.20;99.90;;;;;;5076516;28;20032;-69
2023/09/26 05:31:01;;;;;;;16.73;12.60;;;16.30;99.90;;;;;;5073890;28;20024;-70
2023/09/26 05:33:27;;;;;;;19.55;13.02;;;16.30;99.90;;;;;;5074326;28;20036;-70
2023/09/26 05:35:53;;;;;;;16.83;12.20;;;16.40;99.90;;;;;;5073369;28;20028;-69
2023/09/26 05:38:20;;;;;;;25.25;12.20;;;16.40;99.90;;;;;;5075155;28;20477;-69
2023/09/26 05:40:46;;;;;;;19.17;12.55;;;16.50;99.90;;;;;;5073634;28;20431;-69
2023/09/26 05:43:12;;;;;;;25.20;12.48;;;16.50;99.90;;;;;;5073787;28;20538;-68
2023/09/26 05:45:37;;;;;;;17.80;13.80;;;16.50;99.90;;;;;;5072704;28;20036;-69
2023/09/26 05:48:04;;;;;;;19.02;13.07;;;16.60;99.90;;;;;;5073522;28;20024;-69
2023/09/26 05:50:30;;;;;;;24.23;14.02;;;16.60;99.90;;;;;;5073764;28;20033;-69
2023/09/26 05:52:55;;;;;;;23.02;13.55;;;16.70;99.90;;;;;;5073410;28;20031;-69
2023/09/26 05:55:21;;;;;;;30.50;14.95;;;16.70;99.90;;;;;;5073219;28;20029;-69
2023/09/26 05:57:48;;;;;;;24.58;13.23;;;16.80;99.90;;;;;;5073265;28;20032;-70
2023/09/26 06:00:14;;;;;;;24.48;13.27;;;16.80;99.90;;;;;;5073858;28;20025;-69
2023/09/26 06:02:40;;;;;;;23.15;14.18;;;16.80;99.90;;;;;;5073696;28;20423;-70
2023/09/26 06:05:06;;;;;;;25.13;14.48;;;16.90;99.90;;;;;;5071850;28;20385;-69
2023/09/26 06:07:32;;;;;;;28.27;16.58;;;17.00;99.90;;;;;;5073389;28;20036;-69
2023/09/26 06:09:58;;;;;;;27.10;16.52;;;17.00;99.90;;;;;;5072776;28;20024;-69
2023/09/26 06:12:24;;;;;;;23.92;16.17;;;17.10;99.90;;;;;;5073400;28;20028;-70
2023/09/26 06:14:50;;;;;;;29.95;17.95;;;17.20;99.90;;;;;;5073368;28;20475;-70
2023/09/26 06:17:16;;;;;;;22.98;16.77;;;17.30;99.90;;;;;;5073428;28;20373;-70
2023/09/26 06:19:46;;;;;;;28.55;18.60;;;17.30;99.90;;;;;;5073206;28;20035;-70
2023/09/26 06:22:13;;;;;;;24.75;18.13;;;17.40;99.90;;;;;;5072794;28;20032;-69
2023/09/26 06:24:38;;;;;;;27.15;20.10;;;17.40;99.90;;;;;;5072766;28;20024;-69
2023/09/26 06:27:04;;;;;;;28.45;17.98;;;17.40;99.90;;;;;;5072732;28;20147;-70
2023/09/26 06:29:30;;;;;;;23.88;17.20;;;17.50;99.90;;;;;;5072630;28;20385;-69
2023/09/26 06:31:55;;;;;;;30.13;18.05;;;17.60;99.90;;;;;;5072060;28;20036;-69
2023/09/26 06:34:21;;;;;;;23.25;16.90;;;17.50;99.90;;;;;;5072267;28;20024;-69
2023/09/26 06:36:51;;;;;;;25.77;18.27;;;17.60;99.90;;;;;;5072243;28;20024;-69
2023/09/26 06:39:17;;;;;;;28.65;15.75;;;17.60;99.90;;;;;;5072397;28;20469;-70
2023/09/26 06:41:42;;;;;;;26.30;16.20;;;17.60;99.90;;;;;;5072537;28;20082;-69
2023/09/26 06:44:09;;;;;;;26.55;15.73;;;17.60;99.90;;;;;;5072019;28;20102;-70
2023/09/26 06:46:35;;;;;;;24.27;15.57;;;17.60;99.90;;;;;;5071116;28;20063;-69
2023/09/26 06:49:03;;;;;;;23.00;14.38;;;17.60;99.90;;;;;;5072002;28;20032;-69
2023/09/26 06:51:30;;;;;;;33.35;16.10;;;17.60;99.90;;;;;;5072340;28;20028;-69
2023/09/26 06:53:56;;;;;;;32.28;16.10;;;17.70;99.90;;;;;;5071970;28;20388;-70
2023/09/26 06:56:22;;;;;;;33.08;17.23;;;17.70;99.90;;;;;;5072015;28;20059;-69
2023/09/26 06:58:48;;;;;;;31.50;17.33;;;17.80;99.90;;;;;;5071997;28;20032;-69
2023/09/26 07:01:15;;;;;;;33.88;17.60;;;17.80;99.90;;;;;;5071202;28;20518;-70
2023/09/26 07:03:41;;;;;;;30.50;16.77;;;17.90;99.90;;;;;;5072275;28;20017;-69
2023/09/26 07:06:12;;;;;;;28.77;17.75;;;18.10;99.90;;;;;;5070752;28;20474;-69
2023/09/26 07:08:38;;;;;;;30.27;17.95;;;18.20;99.90;;;;;;5071048;28;20534;-69
2023/09/26 07:11:05;;;;;;;31.25;17.38;;;18.40;99.90;;;;;;5071967;28;20028;-69
2023/09/26 07:13:31;;;;;;;29.17;17.08;;;18.60;99.90;;;;;;5072598;28;20035;-69
2023/09/26 07:16:01;;;;;;;32.17;15.93;;;19.00;99.90;;;;;;5072184;28;20028;-69
2023/09/26 07:18:26;;;;;;;39.90;19.80;;;19.30;99.90;;;;;;5071318;28;20044;-69
2023/09/26 07:20:53;;;;;;;38.47;19.00;;;19.50;99.90;;;;;;5071878;28;20024;-71
2023/09/26 07:23:18;;;;;;;33.63;19.08;;;19.80;99.90;;;;;;5071976;28;20504;-69
2023/09/26 07:25:44;;;;;;;31.75;17.35;;;20.10;99.90;;;;;;5072392;28;20131;-69
2023/09/26 07:28:10;;;;;;;25.25;15.25;;;20.50;99.90;;;;;;5083521;28;20028;-69
2023/09/26 07:30:36;;;;;;;23.05;13.77;;;20.90;99.90;;;;;;5092487;28;20024;-70
2023/09/26 07:33:01;;;;;;;25.48;12.43;;;21.20;99.90;;;;;;5091976;28;20024;-70
2023/09/26 07:35:28;;;;;;;23.15;12.45;;;21.70;98.10;;;;;;5092688;28;20035;-70
2023/09/26 07:37:55;;;;;;;19.30;12.07;;;22.40;96.50;;;;;;5087178;28;20032;-71
2023/09/26 07:40:22;;;;;;;26.30;11.45;;;23.30;94.40;;;;;;5092233;28;20032;-70
2023/09/26 07:42:47;;;;;;;19.58;10.70;;;24.30;92.30;;;;;;5092778;28;20031;-70
2023/09/26 07:45:16;;;;;;;14.52;9.25;;;25.20;88.10;;;;;;5088173;28;20028;-70
2023/09/26 07:47:43;;;;;;;23.15;10.90;;;26.00;84.00;;;;;;5072282;28;20116;-70
2023/09/26 07:50:09;;;;;;;21.73;9.45;;;26.70;79.50;;;;;;5071826;28;20035;-69
2023/09/26 07:52:34;;;;;;;13.85;8.38;;;27.10;73.20;;;;;;5072175;28;20377;-69
2023/09/26 07:55:00;;;;;;;21.45;11.00;;;27.80;74.30;;;;;;5071827;28;20481;-70
2023/09/26 07:57:26;;;;;;;20.55;11.43;;;28.40;68.00;;;;;;5071758;28;20052;-69
2023/09/26 07:59:51;;;;;;;19.75;10.82;;;28.80;67.00;;;;;;5071991;28;20437;-69
2023/09/26 08:02:17;;;;;;;14.65;9.10;;;29.10;65.00;;;;;;5071610;28;20476;-70
2023/09/26 08:04:42;;;;;;;24.10;8.05;;;29.40;63.90;;;;;;5071806;28;20112;-69
2023/09/26 08:07:08;;;;;;;13.60;8.25;;;29.70;63.20;;;;;;5071579;28;20025;-69
2023/09/26 08:09:34;;;;;;;12.95;9.05;;;29.70;62.30;;;;;;5072658;28;20036;-70
2023/09/26 08:11:59;;;;;;;17.63;9.10;;;29.50;61.30;;;;;;5072471;28;20082;-69
2023/09/26 08:14:25;;;;;;;15.85;7.88;;;29.60;62.10;;;;;;5076010;28;20028;-69
2023/09/26 08:16:51;;;;;;;14.15;7.47;;;29.10;62.50;;;;;;5075845;28;20174;-70
2023/09/26 08:19:16;;;;;;;17.65;8.55;;;28.60;64.40;;;;;;5074203;28;20129;-70
2023/09/26 08:21:44;;;;;;;14.98;7.90;;;28.30;64.90;;;;;;5074579;28;20461;-69
2023/09/26 08:24:10;;;;;;;13.65;7.50;;;28.00;65.80;;;;;;5075023;28;20115;-69
2023/09/26 08:26:35;;;;;;;14.70;7.70;;;27.80;66.60;;;;;;5075190;28;20056;-70
2023/09/26 08:29:01;;;;;;;17.05;8.73;;;27.50;67.00;;;;;;5075086;28;20031;-70
2023/09/26 08:31:26;;;;;;;10.93;7.57;;;27.30;67.80;;;;;;5075456;28;20033;-69
2023/09/26 08:33:53;;;;;;;17.63;7.70;;;27.00;68.40;;;;;;5075488;28;20472;-69
2023/09/26 08:36:20;;;;;;;19.73;8.52;;;26.90;68.90;;;;;;5074917;28;20461;-68
2023/09/26 08:38:50;;;;;;;17.25;7.85;;;26.80;69.70;;;;;;5075269;28;20036;-70
2023/09/26 08:41:17;;;;;;;16.73;7.03;;;26.80;70.30;;;;;;5074809;28;20052;-69
2023/09/26 08:43:44;;;;;;;16.30;7.68;;;26.60;70.00;;;;;;5075224;28;20102;-69
2023/09/26 08:46:10;;;;;;;12.85;7.68;;;26.50;70.30;;;;;;5074685;28;20389;-69
2023/09/26 08:48:36;;;;;;;15.45;7.28;;;26.50;71.60;;;;;;5075034;28;20031;-69
2023/09/26 08:51:03;;;;;;;12.55;6.80;;;26.40;71.10;;;;;;5074669;28;20098;-69
2023/09/26 08:53:29;;;;;;;12.00;6.90;;;26.40;72.50;;;;;;5074954;28;20059;-69
2023/09/26 08:55:55;;;;;;;11.55;6.82;;;26.40;71.20;;;;;;5074811;28;20532;-68
2023/09/26 08:58:21;;;;;;;12.50;6.10;;;26.40;71.80;;;;;;5074367;28;20116;-69
2023/09/26 09:00:47;;;;;;;12.02;6.22;;;26.50;71.80;;;;;;5074803;28;20028;-69
2023/09/26 09:03:13;;;;;;;16.90;7.07;;;26.50;72.10;;;;;;5074527;28;20032;-69
2023/09/26 09:05:40;;;;;;;10.50;6.72;;;26.50;71.90;;;;;;5075023;28;20028;-69
2023/09/26 09:08:07;;;;;;;19.05;6.75;;;26.50;71.90;;;;;;5074315;28;20050;-70
2023/09/26 09:10:48;;;;;;;9.15;6.45;;;26.50;71.50;;;;;;5074664;28;20104;-70
2023/09/26 09:13:45;;;;;;;18.85;7.07;;;26.50;72.60;;;;;;5074243;28;20024;-70
2023/09/26 09:16:16;;;;;;;15.80;6.82;;;26.50;71.20;;;;;;5073155;28;20048;-69
2023/09/26 09:18:50;;;;;;;12.00;6.18;;;26.40;72.20;;;;;;5074654;28;20029;-69
2023/09/26 09:21:31;;;;;;;14.25;6.25;;;26.50;72.40;;;;;;5073795;28;20028;-69
2023/09/26 09:24:06;;;;;;;14.75;6.35;;;26.70;72.40;;;;;;5074088;28;20029;-69
2023/09/26 09:26:36;;;;;;;14.45;6.85;;;26.80;71.60;;;;;;5074432;28;20035;-69
2023/09/26 09:29:21;;;;;;;18.30;9.80;;;26.90;71.30;;;;;;5075886;28;20484;-70
2023/09/26 09:31:47;;;;;;;16.80;8.05;;;26.90;70.50;;;;;;5074291;28;20025;-68
2023/09/26 09:34:15;;;;;;;15.27;9.20;;;27.00;70.90;;;;;;5073836;28;20039;-68
2023/09/26 09:36:43;;;;;;;18.50;10.15;;;26.90;70.60;;;;;;5080326;28;20484;-69
2023/09/26 09:39:10;;;;;;;16.65;10.13;;;26.90;70.20;;;;;;5090530;28;20028;-68
2023/09/26 09:41:39;;;;;;;19.65;10.00;;;26.90;69.90;;;;;;5094357;28;20031;-70
2023/09/26 09:44:05;;;;;;;15.23;8.18;;;26.90;70.60;;;;;;5093747;28;20020;-69
2023/09/26 09:46:34;;;;;;;16.67;10.10;;;26.90;71.10;;;;;;5094458;28;20366;-68
2023/09/26 09:49:02;;;;;;;17.98;9.27;;;27.00;70.40;;;;;;5094246;28;20032;-69
2023/09/26 09:51:29;;;;;;;17.67;9.10;;;27.00;71.20;;;;;;5094147;28;20026;-69
2023/09/26 09:53:55;;;;;;;14.68;8.30;;;26.90;70.80;;;;;;5094173;28;20020;-68
2023/09/26 09:56:24;;;;;;;13.23;8.05;;;26.90;72.10;;;;;;5093554;28;20052;-70
2023/09/26 09:58:59;;;;;;;13.65;7.20;;;27.00;71.30;;;;;;5093704;28;20028;-70
2023/09/26 10:01:26;;;;;;;10.82;6.53;;;27.10;71.30;;;;;;5093470;28;20126;-68
2023/09/26 10:03:53;;;;;;;15.90;9.02;;;27.20;72.40;;;;;;5093939;28;20039;-68
2023/09/26 10:06:18;;;;;;;15.38;8.75;;;27.10;70.30;;;;;;5092040;28;20028;-70
2023/09/26 10:08:47;;;;;;;14.10;8.20;;;27.10;70.40;;;;;;5093761;28;20586;-68
2023/09/26 10:11:13;;;;;;;14.07;7.90;;;27.10;70.70;;;;;;5093275;28;20020;-69
2023/09/26 10:13:40;;;;;;;17.33;7.82;;;27.20;70.70;;;;;;5093731;28;20056;-69
2023/09/26 10:16:18;;;;;;;16.98;8.77;;;27.30;70.80;;;;;;5093138;28;20123;-69
2023/09/26 10:18:47;;;;;;;16.17;7.90;;;27.20;69.90;;;;;;5093541;28;20113;-69
2023/09/26 10:21:20;;;;;;;16.98;7.45;;;27.20;70.20;;;;;;5093093;28;20085;-69
2023/09/26 10:24:05;;;;;;;13.18;7.78;;;27.20;70.60;;;;;;5093516;28;20081;-69
2023/09/26 10:26:38;;;;;;;15.38;6.47;;;27.20;70.60;;;;;;5093420;28;20020;-69
2023/09/26 10:29:10;;;;;;;13.98;6.38;;;27.30;71.70;;;;;;5093457;28;20032;-69
2023/09/26 10:31:41;;;;;;;14.30;6.63;;;27.30;70.80;;;;;;5093218;28;20487;-69
2023/09/26 10:34:07;;;;;;;13.52;6.60;;;27.30;70.80;;;;;;5092945;28;20059;-70
2023/09/26 10:36:34;;;;;;;12.20;6.03;;;27.40;71.20;;;;;;5092542;28;20483;-69
2023/09/26 10:39:05;;;;;;;13.10;5.43;;;27.50;70.90;;;;;;5093015;28;20032;-70
2023/09/26 10:41:32;;;;;;;10.95;5.53;;;27.70;70.60;;;;;;5093112;28;20024;-70
2023/09/26 10:43:58;;;;;;;12.05;5.30;;;27.80;70.70;;;;;;5092859;28;20472;-69
2023/09/26 10:46:24;;;;;;;11.35;5.18;;;27.80;70.00;;;;;;5092415;28;20032;-69
2023/09/26 10:48:49;;;;;;;9.40;4.13;;;27.90;69.70;;;;;;5093082;28;20028;-69
2023/09/26 10:51:18;;;;;;;9.65;5.10;;;27.90;69.80;;;;;;5092480;28;20031;-69
2023/09/26 10:53:44;;;;;;;12.18;5.75;;;27.90;69.40;;;;;;5092881;28;20479;-69
2023/09/26 10:56:10;;;;;;;9.25;4.00;;;27.90;69.70;;;;;;5092574;28;20044;-70
2023/09/26 10:58:36;;;;;;;18.42;4.85;;;27.80;70.40;;;;;;5093023;28;20392;-70
2023/09/26 11:01:02;;;;;;;10.60;4.80;;;27.80;69.70;;;;;;5092532;28;20028;-69
2023/09/26 11:03:31;;;;;;;12.88;4.80;;;27.90;70.00;;;;;;5092464;28;20111;-70
2023/09/26 11:05:57;;;;;;;12.48;4.93;;;27.90;69.40;;;;;;5092915;28;20027;-70
2023/09/26 11:08:23;;;;;;;12.73;5.13;;;27.90;69.60;;;;;;5092228;28;20365;-71
2023/09/26 11:10:49;;;;;;;13.70;5.03;;;27.80;69.80;;;;;;5092608;28;20020;-69
2023/09/26 11:13:16;;;;;;;11.80;4.68;;;27.90;70.30;;;;;;5092346;28;20073;-70
2023/09/26 11:15:45;;;;;;;12.30;5.07;;;27.90;69.10;;;;;;5092806;28;20047;-69
2023/09/26 11:18:13;;;;;;;8.15;4.45;;;27.90;69.40;;;;;;5092466;28;20043;-70
2023/09/26 11:20:40;;;;;;;8.65;4.20;;;28.10;69.80;;;;;;5089201;28;20419;-70
2023/09/26 11:23:06;;;;;;;6.78;4.38;;;28.10;68.90;;;;;;5092721;28;20031;-69
2023/09/26 11:25:32;;;;;;;7.65;4.20;;;28.20;68.20;;;;;;5092359;28;20447;-70
2023/09/26 11:27:58;;;;;;;10.55;4.45;;;28.10;67.80;;;;;;5092349;28;20035;-70
2023/09/26 11:30:24;;;;;;;8.77;3.85;;;28.00;67.90;;;;;;5092161;28;20024;-68
2023/09/26 11:32:54;;;;;;;11.00;4.80;;;27.90;67.80;;;;;;5092298;28;20024;-68
2023/09/26 11:35:21;;;;;;;11.95;4.05;;;27.80;68.30;;;;;;5087764;28;20028;-68
2023/09/26 11:37:50;;;;;;;10.52;4.22;;;27.80;68.30;;;;;;5092512;28;20086;-68
2023/09/26 11:40:24;;;;;;;12.13;4.47;;;27.80;68.10;;;;;;5090356;28;20423;-69
2023/09/26 11:42:52;;;;;;;9.32;4.80;;;27.80;68.30;;;;;;5092570;28;20434;-68
2023/09/26 11:45:26;;;;;;;10.55;4.72;;;27.80;68.30;;;;;;5092261;28;20032;-68
2023/09/26 11:47:57;;;;;;;14.68;5.10;;;27.80;68.00;;;;;;5095486;28;20418;-68
2023/09/26 11:50:24;;;;;;;11.82;4.85;;;27.80;68.20;;;;;;5096003;28;20024;-68
2023/09/26 11:52:50;;;;;;;8.88;4.63;;;27.80;68.20;;;;;;5096462;28;20020;-68
2023/09/26 11:55:20;;;;;;;7.78;4.30;;;27.70;68.60;;;;;;5096044;28;20419;-69
2023/09/26 11:57:49;;;;;;;9.88;4.05;;;27.70;68.20;;;;;;5096400;28;20111;-69
2023/09/26 12:00:18;;;;;;;10.43;4.43;;;27.70;68.40;;;;;;5095711;28;20103;-70
2023/09/26 12:02:46;;;;;;;9.80;5.05;;;27.70;68.60;;;;;;5096266;28;20031;-69
2023/09/26 12:05:15;;;;;;;9.63;4.30;;;27.70;68.30;;;;;;5096501;28;20050;-70
2023/09/26 12:07:44;;;;;;;6.82;4.10;;;27.70;68.50;;;;;;5096160;28;20028;-69
2023/09/26 12:10:10;;;;;;;9.55;4.43;;;27.60;67.80;;;;;;5095909;28;20059;-69
2023/09/26 12:12:37;;;;;;;10.23;4.55;;;27.60;68.10;;;;;;5094187;28;20078;-69
2023/09/26 12:15:34;;;;;;;8.63;4.50;;;27.50;67.60;;;;;;5095964;28;20032;-70
2023/09/26 12:18:00;;;;;;;10.50;4.45;;;27.50;67.80;;;;;;5050893;28;20101;-70
2023/09/26 12:20:28;;;;;;;6.47;4.20;;;27.50;67.90;;;;;;5095550;28;20103;-69
2023/09/26 12:22:56;;;;;;;8.23;4.30;;;27.40;68.50;;;;;;5095966;28;20457;-68
2023/09/26 12:25:23;;;;;;;12.90;4.72;;;27.20;68.10;;;;;;5095197;28;20115;-70
2023/09/26 12:27:53;;;;;;;8.30;4.82;;;27.20;68.70;;;;;;5095703;28;20030;-70
2023/09/26 12:30:19;;;;;;;8.48;4.22;;;27.10;68.00;;;;;;5095650;28;20020;-69
2023/09/26 12:32:46;;;;;;;8.57;4.45;;;27.10;68.20;;;;;;5095744;28;20376;-69